sensor_id;sensor_type;location;lat;lon;timestamp;temperature;humidity
53146;DHT22;39042;53.150;5.898;2024-03-02T00:00:23;8.10;99.90
53146;DHT22;39042;53.150;5.898;2024-03-02T00:02:51;8.10;99.90
53146;DHT22;39042;53.150;5.898;2024-03-02T00:05:21;8.10;99.90
53146;DHT22;39042;53.150;5.898;2024-03-02T00:10:26;8.00;99.90
53146;DHT22;39042;53.150;5.898;2024-03-02T00:12:58;7.90;99.90
53146;DHT22;39042;53.150;5.898;2024-03-02T00:15:30;7.90;99.90
53146;DHT22;39042;53.150;5.898;2024-03-02T00:17:58;7.90;99.90
53146;DHT22;39042;53.150;5.898;2024-03-02T00:20:24;7.90;99.90
53146;DHT22;39042;53.150;5.898;2024-03-02T00:23:07;7.90;99.90
53146;DHT22;39042;53.150;5.898;2024-03-02T00:25:44;7.90;99.90
53146;DHT22;39042;53.150;5.898;2024-03-02T00:28:17;7.90;99.90
53146;DHT22;39042;53.150;5.898;2024-03-02T00:33:15;7.90;99.90
53146;DHT22;39042;53.150;5.898;2024-03-02T00:35:44;7.90;99.90
53146;DHT22;39042;53.150;5.898;2024-03-02T00:38:10;7.90;99.90
53146;DHT22;39042;53.150;5.898;2024-03-02T00:40:36;7.90;99.90
53146;DHT22;39042;53.150;5.898;2024-03-02T00:43:02;7.90;99.90
53146;DHT22;39042;53.150;5.898;2024-03-02T00:45:29;7.90;99.90
53146;DHT22;39042;53.150;5.898;2024-03-02T00:47:55;7.90;99.90
53146;DHT22;39042;53.150;5.898;2024-03-02T00:50:21;7.80;99.90
53146;DHT22;39042;53.150;5.898;2024-03-02T00:52:47;7.80;99.90
53146;DHT22;39042;53.150;5.898;2024-03-02T00:55:14;7.80;99.90
53146;DHT22;39042;53.150;5.898;2024-03-02T00:57:40;7.80;99.90
53146;DHT22;39042;53.150;5.898;2024-03-02T01:00:06;7.80;99.90
53146;DHT22;39042;53.150;5.898;2024-03-02T01:02:36;7.80;99.90
53146;DHT22;39042;53.150;5.898;2024-03-02T01:05:01;7.80;99.90
53146;DHT22;39042;53.150;5.898;2024-03-02T01:07:27;7.80;99.90
53146;DHT22;39042;53.150;5.898;2024-03-02T01:09:53;7.90;99.90
53146;DHT22;39042;53.150;5.898;2024-03-02T01:12:19;7.80;99.90
53146;DHT22;39042;53.150;5.898;2024-03-02T01:14:45;7.80;99.90
53146;DHT22;39042;53.150;5.898;2024-03-02T01:17:10;7.80;99.90
53146;DHT22;39042;53.150;5.898;2024-03-02T01:19:36;7.90;99.90
53146;DHT22;39042;53.150;5.898;2024-03-02T01:22:03;7.90;99.90
53146;DHT22;39042;53.150;5.898;2024-03-02T01:24:29;7.90;99.90
53146;DHT22;39042;53.150;5.898;2024-03-02T01:26:55;7.90;99.90
53146;DHT22;39042;53.150;5.898;2024-03-02T01:29:21;8.00;99.90
53146;DHT22;39042;53.150;5.898;2024-03-02T01:31:47;8.00;99.90
53146;DHT22;39042;53.150;5.898;2024-03-02T01:34:13;8.10;99.90
53146;DHT22;39042;53.150;5.898;2024-03-02T01:36:39;8.10;99.90
53146;DHT22;39042;53.150;5.898;2024-03-02T01:39:05;8.20;99.90
53146;DHT22;39042;53.150;5.898;2024-03-02T01:41:34;8.20;99.90
53146;DHT22;39042;53.150;5.898;2024-03-02T01:44:00;8.20;99.90
53146;DHT22;39042;53.150;5.898;2024-03-02T01:46:26;8.20;99.90
53146;DHT22;39042;53.150;5.898;2024-03-02T01:48:52;8.30;99.90
53146;DHT22;39042;53.150;5.898;2024-03-02T01:51:18;8.30;99.90
53146;DHT22;39042;53.150;5.898;2024-03-02T01:53:43;8.30;99.90
53146;DHT22;39042;53.150;5.898;2024-03-02T01:56:09;8.40;99.90
53146;DHT22;39042;53.150;5.898;2024-03-02T01:58:35;8.40;99.90
53146;DHT22;39042;53.150;5.898;2024-03-02T02:01:01;8.40;99.90
53146;DHT22;39042;53.150;5.898;2024-03-02T02:03:27;8.40;99.90
53146;DHT22;39042;53.150;5.898;2024-03-02T02:05:53;8.50;99.90
53146;DHT22;39042;53.150;5.898;2024-03-02T02:08:19;8.50;99.90
53146;DHT22;39042;53.150;5.898;2024-03-02T02:10:45;8.50;99.90
53146;DHT22;39042;53.150;5.898;2024-03-02T02:13:11;8.50;99.90
53146;DHT22;39042;53.150;5.898;2024-03-02T02:15:36;8.60;99.90
53146;DHT22;39042;53.150;5.898;2024-03-02T02:18:03;8.60;99.90
53146;DHT22;39042;53.150;5.898;2024-03-02T02:20:29;8.60;99.90
53146;DHT22;39042;53.150;5.898;2024-03-02T02:22:56;8.50;99.90
53146;DHT22;39042;53.150;5.898;2024-03-02T02:25:22;8.50;99.90
53146;DHT22;39042;53.150;5.898;2024-03-02T02:27:48;8.50;99.90
53146;DHT22;39042;53.150;5.898;2024-03-02T02:30:22;8.60;99.90
53146;DHT22;39042;53.150;5.898;2024-03-02T02:32:48;8.50;99.90
53146;DHT22;39042;53.150;5.898;2024-03-02T02:35:14;8.60;99.90
53146;DHT22;39042;53.150;5.898;2024-03-02T02:37:39;8.60;99.90
53146;DHT22;39042;53.150;5.898;2024-03-02T02:40:06;8.50;99.90
53146;DHT22;39042;53.150;5.898;2024-03-02T02:42:32;8.50;99.90
53146;DHT22;39042;53.150;5.898;2024-03-02T02:44:58;8.50;99.90
53146;DHT22;39042;53.150;5.898;2024-03-02T02:47:23;8.50;99.90
53146;DHT22;39042;53.150;5.898;2024-03-02T02:49:49;8.50;99.90
53146;DHT22;39042;53.150;5.898;2024-03-02T02:52:15;8.50;99.90
53146;DHT22;39042;53.150;5.898;2024-03-02T02:54:42;8.50;99.90
53146;DHT22;39042;53.150;5.898;2024-03-02T02:57:08;8.50;99.90
53146;DHT22;39042;53.150;5.898;2024-03-02T02:59:35;8.50;99.90
53146;DHT22;39042;53.150;5.898;2024-03-02T03:02:01;8.50;99.90
53146;DHT22;39042;53.150;5.898;2024-03-02T03:04:27;8.40;99.90
53146;DHT22;39042;53.150;5.898;2024-03-02T03:06:53;8.40;99.90
53146;DHT22;39042;53.150;5.898;2024-03-02T03:09:18;8.40;99.90
53146;DHT22;39042;53.150;5.898;2024-03-02T03:11:44;8.40;99.90
53146;DHT22;39042;53.150;5.898;2024-03-02T03:14:10;8.40;99.90
53146;DHT22;39042;53.150;5.898;2024-03-02T03:16:36;8.30;99.90
53146;DHT22;39042;53.150;5.898;2024-03-02T03:19:02;8.30;99.90
53146;DHT22;39042;53.150;5.898;2024-03-02T03:21:27;8.30;99.90
53146;DHT22;39042;53.150;5.898;2024-03-02T03:23:53;8.30;99.90
53146;DHT22;39042;53.150;5.898;2024-03-02T03:26:20;8.30;99.90
53146;DHT22;39042;53.150;5.898;2024-03-02T03:28:46;8.30;99.90
53146;DHT22;39042;53.150;5.898;2024-03-02T03:31:12;8.20;99.90
53146;DHT22;39042;53.150;5.898;2024-03-02T03:33:38;8.20;99.90
53146;DHT22;39042;53.150;5.898;2024-03-02T03:36:04;8.20;99.90
53146;DHT22;39042;53.150;5.898;2024-03-02T03:38:30;8.20;99.90
53146;DHT22;39042;53.150;5.898;2024-03-02T03:40:56;8.10;99.90
53146;DHT22;39042;53.150;5.898;2024-03-02T03:43:21;8.10;99.90
53146;DHT22;39042;53.150;5.898;2024-03-02T03:45:47;8.10;99.90
53146;DHT22;39042;53.150;5.898;2024-03-02T03:48:13;8.00;99.90
53146;DHT22;39042;53.150;5.898;2024-03-02T03:50:39;8.00;99.90
53146;DHT22;39042;53.150;5.898;2024-03-02T03:53:05;8.00;99.90
53146;DHT22;39042;53.150;5.898;2024-03-02T03:55:31;8.00;99.90
53146;DHT22;39042;53.150;5.898;2024-03-02T03:57:56;8.00;99.90
53146;DHT22;39042;53.150;5.898;2024-03-02T04:00:22;8.00;99.90
53146;DHT22;39042;53.150;5.898;2024-03-02T04:02:48;8.00;99.90
53146;DHT22;39042;53.150;5.898;2024-03-02T04:05:14;8.00;99.90
53146;DHT22;39042;53.150;5.898;2024-03-02T04:07:39;8.00;99.90
53146;DHT22;39042;53.150;5.898;2024-03-02T04:10:15;7.90;99.90
53146;DHT22;39042;53.150;5.898;2024-03-02T04:12:42;7.90;99.90
53146;DHT22;39042;53.150;5.898;2024-03-02T04:15:08;7.90;99.90
53146;DHT22;39042;53.150;5.898;2024-03-02T04:17:34;7.90;99.90
53146;DHT22;39042;53.150;5.898;2024-03-02T04:20:01;7.90;99.90
53146;DHT22;39042;53.150;5.898;2024-03-02T04:22:28;7.90;99.90
53146;DHT22;39042;53.150;5.898;2024-03-02T04:24:53;7.80;99.90
53146;DHT22;39042;53.150;5.898;2024-03-02T04:27:20;7.80;99.90
53146;DHT22;39042;53.150;5.898;2024-03-02T04:29:45;7.80;99.90
53146;DHT22;39042;53.150;5.898;2024-03-02T04:32:11;7.80;99.90
53146;DHT22;39042;53.150;5.898;2024-03-02T04:34:37;7.70;99.90
53146;DHT22;39042;53.150;5.898;2024-03-02T04:37:03;7.60;99.90
53146;DHT22;39042;53.150;5.898;2024-03-02T04:39:29;7.60;99.90
53146;DHT22;39042;53.150;5.898;2024-03-02T04:41:54;7.60;99.90
53146;DHT22;39042;53.150;5.898;2024-03-02T04:44:20;7.60;99.90
53146;DHT22;39042;53.150;5.898;2024-03-02T04:46:46;7.50;99.90
53146;DHT22;39042;53.150;5.898;2024-03-02T04:49:12;7.50;99.90
53146;DHT22;39042;53.150;5.898;2024-03-02T04:51:37;7.50;99.90
53146;DHT22;39042;53.150;5.898;2024-03-02T04:54:03;7.50;99.90
53146;DHT22;39042;53.150;5.898;2024-03-02T04:56:29;7.40;99.90
53146;DHT22;39042;53.150;5.898;2024-03-02T04:58:58;7.50;99.90
53146;DHT22;39042;53.150;5.898;2024-03-02T05:01:23;7.50;99.90
53146;DHT22;39042;53.150;5.898;2024-03-02T05:03:49;7.40;99.90
53146;DHT22;39042;53.150;5.898;2024-03-02T05:06:15;7.40;99.90
53146;DHT22;39042;53.150;5.898;2024-03-02T05:08:41;7.40;99.90
53146;DHT22;39042;53.150;5.898;2024-03-02T05:11:07;7.30;99.90
53146;DHT22;39042;53.150;5.898;2024-03-02T05:13:51;7.30;99.90
53146;DHT22;39042;53.150;5.898;2024-03-02T05:16:17;7.30;99.90
53146;DHT22;39042;53.150;5.898;2024-03-02T05:18:43;7.20;99.90
53146;DHT22;39042;53.150;5.898;2024-03-02T05:21:08;7.20;99.90
53146;DHT22;39042;53.150;5.898;2024-03-02T05:23:34;7.10;99.90
53146;DHT22;39042;53.150;5.898;2024-03-02T05:26:00;7.10;99.90
53146;DHT22;39042;53.150;5.898;2024-03-02T05:28:26;7.00;99.90
53146;DHT22;39042;53.150;5.898;2024-03-02T05:30:52;7.00;99.90
53146;DHT22;39042;53.150;5.898;2024-03-02T05:33:17;6.90;99.90
53146;DHT22;39042;53.150;5.898;2024-03-02T05:35:44;6.90;99.90
53146;DHT22;39042;53.150;5.898;2024-03-02T05:38:10;6.80;99.90
53146;DHT22;39042;53.150;5.898;2024-03-02T05:40:35;6.70;99.90
53146;DHT22;39042;53.150;5.898;2024-03-02T05:43:01;6.70;99.90
53146;DHT22;39042;53.150;5.898;2024-03-02T05:45:27;6.60;99.90
53146;DHT22;39042;53.150;5.898;2024-03-02T05:47:53;6.60;99.90
53146;DHT22;39042;53.150;5.898;2024-03-02T05:50:18;6.60;99.90
53146;DHT22;39042;53.150;5.898;2024-03-02T05:52:45;6.60;99.90
53146;DHT22;39042;53.150;5.898;2024-03-02T05:55:11;6.50;99.90
53146;DHT22;39042;53.150;5.898;2024-03-02T05:57:37;6.50;99.90
53146;DHT22;39042;53.150;5.898;2024-03-02T06:00:09;6.40;99.90
53146;DHT22;39042;53.150;5.898;2024-03-02T06:02:41;6.40;99.90
53146;DHT22;39042;53.150;5.898;2024-03-02T06:05:07;6.30;99.90
53146;DHT22;39042;53.150;5.898;2024-03-02T06:07:33;6.30;99.90
53146;DHT22;39042;53.150;5.898;2024-03-02T06:09:59;6.20;99.90
53146;DHT22;39042;53.150;5.898;2024-03-02T06:12:24;6.20;99.90
53146;DHT22;39042;53.150;5.898;2024-03-02T06:14:50;6.10;99.90
53146;DHT22;39042;53.150;5.898;2024-03-02T06:17:16;6.00;99.90
53146;DHT22;39042;53.150;5.898;2024-03-02T06:19:42;6.00;99.90
53146;DHT22;39042;53.150;5.898;2024-03-02T06:22:08;6.00;99.90
53146;DHT22;39042;53.150;5.898;2024-03-02T06:24:36;5.90;99.90
53146;DHT22;39042;53.150;5.898;2024-03-02T06:27:05;5.80;99.90
53146;DHT22;39042;53.150;5.898;2024-03-02T06:29:34;5.80;99.90
53146;DHT22;39042;53.150;5.898;2024-03-02T06:32:00;5.80;99.90
53146;DHT22;39042;53.150;5.898;2024-03-02T06:34:25;5.80;99.90
53146;DHT22;39042;53.150;5.898;2024-03-02T06:36:51;5.80;99.90
53146;DHT22;39042;53.150;5.898;2024-03-02T06:39:17;5.70;99.90
53146;DHT22;39042;53.150;5.898;2024-03-02T06:41:43;5.70;99.90
53146;DHT22;39042;53.150;5.898;2024-03-02T06:44:09;5.70;99.90
53146;DHT22;39042;53.150;5.898;2024-03-02T06:46:35;5.60;99.90
53146;DHT22;39042;53.150;5.898;2024-03-02T06:49:00;5.60;99.90
53146;DHT22;39042;53.150;5.898;2024-03-02T06:51:28;5.60;99.90
53146;DHT22;39042;53.150;5.898;2024-03-02T06:53:53;5.50;99.90
53146;DHT22;39042;53.150;5.898;2024-03-02T06:56:19;5.50;99.90
53146;DHT22;39042;53.150;5.898;2024-03-02T06:58:48;5.50;99.90
53146;DHT22;39042;53.150;5.898;2024-03-02T07:01:14;5.50;99.90
53146;DHT22;39042;53.150;5.898;2024-03-02T07:03:40;5.50;99.90
53146;DHT22;39042;53.150;5.898;2024-03-02T07:06:06;5.50;99.90
53146;DHT22;39042;53.150;5.898;2024-03-02T07:08:32;5.40;99.90
53146;DHT22;39042;53.150;5.898;2024-03-02T07:10:57;5.40;99.90
53146;DHT22;39042;53.150;5.898;2024-03-02T07:13:23;5.40;99.90
53146;DHT22;39042;53.150;5.898;2024-03-02T07:15:49;5.50;99.90
53146;DHT22;39042;53.150;5.898;2024-03-02T07:18:30;5.40;99.90
53146;DHT22;39042;53.150;5.898;2024-03-02T07:20:59;5.50;99.90
53146;DHT22;39042;53.150;5.898;2024-03-02T07:23:29;5.50;99.90
53146;DHT22;39042;53.150;5.898;2024-03-02T07:25:56;5.50;99.90
53146;DHT22;39042;53.150;5.898;2024-03-02T07:28:23;5.50;99.90
53146;DHT22;39042;53.150;5.898;2024-03-02T07:31:01;5.50;99.90
53146;DHT22;39042;53.150;5.898;2024-03-02T07:33:27;5.50;99.90
53146;DHT22;39042;53.150;5.898;2024-03-02T07:35:57;5.60;99.90
53146;DHT22;39042;53.150;5.898;2024-03-02T07:38:25;5.60;99.90
53146;DHT22;39042;53.150;5.898;2024-03-02T07:40:51;5.60;99.90
53146;DHT22;39042;53.150;5.898;2024-03-02T07:43:17;5.60;99.90
53146;DHT22;39042;53.150;5.898;2024-03-02T07:45:45;5.70;99.90
53146;DHT22;39042;53.150;5.898;2024-03-02T07:48:11;5.70;99.90
53146;DHT22;39042;53.150;5.898;2024-03-02T07:50:37;5.80;99.90
53146;DHT22;39042;53.150;5.898;2024-03-02T07:53:05;5.80;99.90
53146;DHT22;39042;53.150;5.898;2024-03-02T07:55:31;5.90;99.90
53146;DHT22;39042;53.150;5.898;2024-03-02T07:57:57;5.90;99.90
53146;DHT22;39042;53.150;5.898;2024-03-02T08:00:23;6.00;99.90
53146;DHT22;39042;53.150;5.898;2024-03-02T08:02:51;6.00;99.90
53146;DHT22;39042;53.150;5.898;2024-03-02T08:05:17;6.10;99.90
53146;DHT22;39042;53.150;5.898;2024-03-02T08:07:46;6.10;99.90
53146;DHT22;39042;53.150;5.898;2024-03-02T08:10:13;6.20;99.90
53146;DHT22;39042;53.150;5.898;2024-03-02T08:12:39;6.20;99.90
53146;DHT22;39042;53.150;5.898;2024-03-02T08:15:06;6.30;99.90
53146;DHT22;39042;53.150;5.898;2024-03-02T08:17:31;6.30;99.90
53146;DHT22;39042;53.150;5.898;2024-03-02T08:19:57;6.40;99.90
53146;DHT22;39042;53.150;5.898;2024-03-02T08:22:23;6.50;99.90
53146;DHT22;39042;53.150;5.898;2024-03-02T08:24:51;6.50;99.90
53146;DHT22;39042;53.150;5.898;2024-03-02T08:27:17;6.60;99.90
53146;DHT22;39042;53.150;5.898;2024-03-02T08:29:43;6.60;99.90
53146;DHT22;39042;53.150;5.898;2024-03-02T08:32:08;6.70;99.90
53146;DHT22;39042;53.150;5.898;2024-03-02T08:34:34;6.70;99.90
53146;DHT22;39042;53.150;5.898;2024-03-02T08:37:01;6.80;99.90
53146;DHT22;39042;53.150;5.898;2024-03-02T08:39:28;6.80;99.90
53146;DHT22;39042;53.150;5.898;2024-03-02T08:41:54;6.90;99.90
53146;DHT22;39042;53.150;5.898;2024-03-02T08:44:20;7.00;99.90
53146;DHT22;39042;53.150;5.898;2024-03-02T08:46:46;7.00;99.90
53146;DHT22;39042;53.150;5.898;2024-03-02T08:49:13;7.10;99.90
53146;DHT22;39042;53.150;5.898;2024-03-02T08:51:38;7.20;99.90
53146;DHT22;39042;53.150;5.898;2024-03-02T08:54:04;7.20;99.90
53146;DHT22;39042;53.150;5.898;2024-03-02T08:56:31;7.30;99.90
53146;DHT22;39042;53.150;5.898;2024-03-02T08:58:57;7.30;99.90
53146;DHT22;39042;53.150;5.898;2024-03-02T09:01:23;7.40;99.90
53146;DHT22;39042;53.150;5.898;2024-03-02T09:03:49;7.50;99.90
53146;DHT22;39042;53.150;5.898;2024-03-02T09:06:15;7.50;99.90
53146;DHT22;39042;53.150;5.898;2024-03-02T09:08:45;7.60;99.90
53146;DHT22;39042;53.150;5.898;2024-03-02T09:11:11;7.70;99.90
53146;DHT22;39042;53.150;5.898;2024-03-02T09:13:38;7.80;99.90
53146;DHT22;39042;53.150;5.898;2024-03-02T09:16:04;7.90;99.90
53146;DHT22;39042;53.150;5.898;2024-03-02T09:18:31;8.00;99.90
53146;DHT22;39042;53.150;5.898;2024-03-02T09:20:57;8.00;99.90
53146;DHT22;39042;53.150;5.898;2024-03-02T09:23:22;8.10;99.90
53146;DHT22;39042;53.150;5.898;2024-03-02T09:25:48;8.20;99.90
53146;DHT22;39042;53.150;5.898;2024-03-02T09:28:17;8.30;99.90
53146;DHT22;39042;53.150;5.898;2024-03-02T09:30:43;8.40;99.90
53146;DHT22;39042;53.150;5.898;2024-03-02T09:33:09;8.40;99.90
53146;DHT22;39042;53.150;5.898;2024-03-02T09:35:34;8.50;99.90
53146;DHT22;39042;53.150;5.898;2024-03-02T09:38:00;8.50;99.90
53146;DHT22;39042;53.150;5.898;2024-03-02T09:40:26;8.50;99.90
53146;DHT22;39042;53.150;5.898;2024-03-02T09:42:53;8.50;99.90
53146;DHT22;39042;53.150;5.898;2024-03-02T09:45:23;8.50;99.90
53146;DHT22;39042;53.150;5.898;2024-03-02T09:47:49;8.60;99.90
53146;DHT22;39042;53.150;5.898;2024-03-02T09:50:15;8.60;99.90
53146;DHT22;39042;53.150;5.898;2024-03-02T09:52:48;8.70;99.90
53146;DHT22;39042;53.150;5.898;2024-03-02T09:55:15;8.70;99.90
53146;DHT22;39042;53.150;5.898;2024-03-02T09:57:41;8.80;99.90
53146;DHT22;39042;53.150;5.898;2024-03-02T10:00:08;8.80;99.90
53146;DHT22;39042;53.150;5.898;2024-03-02T10:02:34;8.80;99.90
53146;DHT22;39042;53.150;5.898;2024-03-02T10:05:00;8.90;99.90
53146;DHT22;39042;53.150;5.898;2024-03-02T10:07:29;8.90;99.90
53146;DHT22;39042;53.150;5.898;2024-03-02T10:09:55;9.00;99.90
53146;DHT22;39042;53.150;5.898;2024-03-02T10:12:21;9.00;99.90
53146;DHT22;39042;53.150;5.898;2024-03-02T10:14:48;9.10;99.90
53146;DHT22;39042;53.150;5.898;2024-03-02T10:17:18;9.20;99.90
53146;DHT22;39042;53.150;5.898;2024-03-02T10:19:44;9.30;99.90
53146;DHT22;39042;53.150;5.898;2024-03-02T10:22:10;9.30;99.90
53146;DHT22;39042;53.150;5.898;2024-03-02T10:24:43;9.40;99.90
53146;DHT22;39042;53.150;5.898;2024-03-02T10:27:18;9.40;99.90
53146;DHT22;39042;53.150;5.898;2024-03-02T10:29:47;9.50;99.90
53146;DHT22;39042;53.150;5.898;2024-03-02T10:32:13;9.50;99.90
53146;DHT22;39042;53.150;5.898;2024-03-02T10:34:44;9.60;99.90
53146;DHT22;39042;53.150;5.898;2024-03-02T10:37:11;9.60;99.90
53146;DHT22;39042;53.150;5.898;2024-03-02T10:39:37;9.70;99.90
53146;DHT22;39042;53.150;5.898;2024-03-02T10:42:07;9.70;99.90
53146;DHT22;39042;53.150;5.898;2024-03-02T10:44:33;9.70;99.90
53146;DHT22;39042;53.150;5.898;2024-03-02T10:47:05;9.80;99.90
53146;DHT22;39042;53.150;5.898;2024-03-02T10:49:31;9.90;99.90
53146;DHT22;39042;53.150;5.898;2024-03-02T10:51:58;9.80;99.90
53146;DHT22;39042;53.150;5.898;2024-03-02T10:54:24;9.90;99.90
53146;DHT22;39042;53.150;5.898;2024-03-02T10:57:04;9.90;99.90
53146;DHT22;39042;53.150;5.898;2024-03-02T11:02:01;9.90;99.90
53146;DHT22;39042;53.150;5.898;2024-03-02T11:04:29;10.00;99.90
53146;DHT22;39042;53.150;5.898;2024-03-02T11:07:00;10.00;99.90
53146;DHT22;39042;53.150;5.898;2024-03-02T11:09:28;10.00;99.90
53146;DHT22;39042;53.150;5.898;2024-03-02T11:12:06;10.00;99.90
53146;DHT22;39042;53.150;5.898;2024-03-02T11:14:32;10.10;99.90
53146;DHT22;39042;53.150;5.898;2024-03-02T11:17:03;10.10;99.90
53146;DHT22;39042;53.150;5.898;2024-03-02T11:19:29;10.10;99.90
53146;DHT22;39042;53.150;5.898;2024-03-02T11:21:56;10.20;99.90
53146;DHT22;39042;53.150;5.898;2024-03-02T11:26:59;10.20;99.90
53146;DHT22;39042;53.150;5.898;2024-03-02T11:29:42;10.20;99.90
53146;DHT22;39042;53.150;5.898;2024-03-02T11:32:21;10.30;99.90
53146;DHT22;39042;53.150;5.898;2024-03-02T11:34:50;10.30;99.90
53146;DHT22;39042;53.150;5.898;2024-03-02T11:37:20;10.30;99.90
53146;DHT22;39042;53.150;5.898;2024-03-02T11:39:48;10.40;99.90
53146;DHT22;39042;53.150;5.898;2024-03-02T11:42:15;10.40;99.90
53146;DHT22;39042;53.150;5.898;2024-03-02T11:44:43;10.40;99.90
53146;DHT22;39042;53.150;5.898;2024-03-02T11:47:11;10.50;99.90
53146;DHT22;39042;53.150;5.898;2024-03-02T11:49:40;10.50;99.90
53146;DHT22;39042;53.150;5.898;2024-03-02T11:52:08;10.50;99.90
53146;DHT22;39042;53.150;5.898;2024-03-02T11:54:41;10.60;99.90
53146;DHT22;39042;53.150;5.898;2024-03-02T11:57:22;10.60;99.90
53146;DHT22;39042;53.150;5.898;2024-03-02T11:59:48;10.70;99.90
53146;DHT22;39042;53.150;5.898;2024-03-02T12:02:22;10.70;99.90
53146;DHT22;39042;53.150;5.898;2024-03-02T12:04:49;10.80;99.90
53146;DHT22;39042;53.150;5.898;2024-03-02T12:07:20;10.80;99.90
53146;DHT22;39042;53.150;5.898;2024-03-02T12:09:48;10.90;99.90
53146;DHT22;39042;53.150;5.898;2024-03-02T12:12:14;10.90;99.90
53146;DHT22;39042;53.150;5.898;2024-03-02T12:14:51;10.90;99.90
53146;DHT22;39042;53.150;5.898;2024-03-02T12:17:17;10.90;99.90
53146;DHT22;39042;53.150;5.898;2024-03-02T12:19:43;10.90;99.90
53146;DHT22;39042;53.150;5.898;2024-03-02T12:22:09;11.00;99.90
53146;DHT22;39042;53.150;5.898;2024-03-02T12:24:35;11.00;99.90
53146;DHT22;39042;53.150;5.898;2024-03-02T12:27:04;11.10;99.90
53146;DHT22;39042;53.150;5.898;2024-03-02T12:29:30;11.10;99.90
53146;DHT22;39042;53.150;5.898;2024-03-02T12:31:56;11.10;99.90
53146;DHT22;39042;53.150;5.898;2024-03-02T12:34:22;11.10;99.90
53146;DHT22;39042;53.150;5.898;2024-03-02T12:36:49;11.20;99.90
53146;DHT22;39042;53.150;5.898;2024-03-02T12:39:21;11.20;99.90
53146;DHT22;39042;53.150;5.898;2024-03-02T12:41:50;11.20;99.90
53146;DHT22;39042;53.150;5.898;2024-03-02T12:44:19;11.30;99.90
53146;DHT22;39042;53.150;5.898;2024-03-02T12:46:46;11.30;99.90
53146;DHT22;39042;53.150;5.898;2024-03-02T12:49:14;11.40;99.90
53146;DHT22;39042;53.150;5.898;2024-03-02T12:51:42;11.50;99.90
53146;DHT22;39042;53.150;5.898;2024-03-02T12:54:08;11.50;99.90
53146;DHT22;39042;53.150;5.898;2024-03-02T12:56:35;11.60;99.90
53146;DHT22;39042;53.150;5.898;2024-03-02T12:59:01;11.60;99.90
53146;DHT22;39042;53.150;5.898;2024-03-02T13:01:27;11.70;99.90
53146;DHT22;39042;53.150;5.898;2024-03-02T13:03:54;11.80;99.90
53146;DHT22;39042;53.150;5.898;2024-03-02T13:06:24;11.80;99.90
53146;DHT22;39042;53.150;5.898;2024-03-02T13:08:53;11.80;99.90
53146;DHT22;39042;53.150;5.898;2024-03-02T13:11:19;11.90;99.90
53146;DHT22;39042;53.150;5.898;2024-03-02T13:13:45;11.90;99.90
53146;DHT22;39042;53.150;5.898;2024-03-02T13:16:11;11.80;99.90
53146;DHT22;39042;53.150;5.898;2024-03-02T13:18:41;11.70;99.90
53146;DHT22;39042;53.150;5.898;2024-03-02T13:21:08;11.80;99.90
53146;DHT22;39042;53.150;5.898;2024-03-02T13:23:34;11.80;99.90
53146;DHT22;39042;53.150;5.898;2024-03-02T13:26:00;11.80;99.90
53146;DHT22;39042;53.150;5.898;2024-03-02T13:28:26;11.80;99.90
53146;DHT22;39042;53.150;5.898;2024-03-02T13:30:52;11.90;99.90
53146;DHT22;39042;53.150;5.898;2024-03-02T13:33:18;11.80;99.90
53146;DHT22;39042;53.150;5.898;2024-03-02T13:35:54;11.80;99.90
53146;DHT22;39042;53.150;5.898;2024-03-02T13:38:20;11.80;99.90
53146;DHT22;39042;53.150;5.898;2024-03-02T13:40:49;11.80;99.90
53146;DHT22;39042;53.150;5.898;2024-03-02T13:43:18;11.80;99.90
53146;DHT22;39042;53.150;5.898;2024-03-02T13:45:45;11.80;99.90
53146;DHT22;39042;53.150;5.898;2024-03-02T13:48:11;11.80;99.90
53146;DHT22;39042;53.150;5.898;2024-03-02T13:50:36;11.90;99.90
53146;DHT22;39042;53.150;5.898;2024-03-02T13:53:02;11.90;99.90
53146;DHT22;39042;53.150;5.898;2024-03-02T13:55:28;12.00;99.90
53146;DHT22;39042;53.150;5.898;2024-03-02T13:57:54;12.00;99.90
53146;DHT22;39042;53.150;5.898;2024-03-02T14:00:20;12.10;99.90
53146;DHT22;39042;53.150;5.898;2024-03-02T14:02:46;12.20;99.90
53146;DHT22;39042;53.150;5.898;2024-03-02T14:05:15;12.30;99.90
53146;DHT22;39042;53.150;5.898;2024-03-02T14:07:41;12.40;99.90
53146;DHT22;39042;53.150;5.898;2024-03-02T14:10:08;12.50;99.90
53146;DHT22;39042;53.150;5.898;2024-03-02T14:12:34;12.60;99.90
53146;DHT22;39042;53.150;5.898;2024-03-02T14:14:59;12.70;99.90
53146;DHT22;39042;53.150;5.898;2024-03-02T14:17:28;12.70;99.90
53146;DHT22;39042;53.150;5.898;2024-03-02T14:19:54;12.70;99.90
53146;DHT22;39042;53.150;5.898;2024-03-02T14:22:20;12.80;99.90
53146;DHT22;39042;53.150;5.898;2024-03-02T14:24:46;12.80;99.90
53146;DHT22;39042;53.150;5.898;2024-03-02T14:27:13;12.90;99.90
53146;DHT22;39042;53.150;5.898;2024-03-02T14:29:40;12.90;99.90
53146;DHT22;39042;53.150;5.898;2024-03-02T14:32:06;12.90;99.90
53146;DHT22;39042;53.150;5.898;2024-03-02T14:34:33;12.90;99.90
53146;DHT22;39042;53.150;5.898;2024-03-02T14:36:59;12.90;99.90
53146;DHT22;39042;53.150;5.898;2024-03-02T14:39:26;12.90;99.90
53146;DHT22;39042;53.150;5.898;2024-03-02T14:41:52;12.90;99.90
53146;DHT22;39042;53.150;5.898;2024-03-02T14:44:20;12.70;99.90
53146;DHT22;39042;53.150;5.898;2024-03-02T14:46:49;12.80;99.90
53146;DHT22;39042;53.150;5.898;2024-03-02T14:49:15;12.80;99.90
53146;DHT22;39042;53.150;5.898;2024-03-02T14:51:41;12.70;99.90
53146;DHT22;39042;53.150;5.898;2024-03-02T14:54:09;12.70;99.90
53146;DHT22;39042;53.150;5.898;2024-03-02T14:56:44;12.70;99.90
53146;DHT22;39042;53.150;5.898;2024-03-02T14:59:10;12.70;99.90
53146;DHT22;39042;53.150;5.898;2024-03-02T15:01:36;12.70;99.90
53146;DHT22;39042;53.150;5.898;2024-03-02T15:04:02;12.60;99.90
53146;DHT22;39042;53.150;5.898;2024-03-02T15:06:30;12.60;99.90
53146;DHT22;39042;53.150;5.898;2024-03-02T15:09:07;12.50;99.90
53146;DHT22;39042;53.150;5.898;2024-03-02T15:11:43;12.50;99.90
53146;DHT22;39042;53.150;5.898;2024-03-02T15:14:09;12.50;99.90
53146;DHT22;39042;53.150;5.898;2024-03-02T15:16:35;12.40;99.90
53146;DHT22;39042;53.150;5.898;2024-03-02T15:19:01;12.40;99.90
53146;DHT22;39042;53.150;5.898;2024-03-02T15:21:27;12.30;99.90
53146;DHT22;39042;53.150;5.898;2024-03-02T15:23:53;12.30;99.90
53146;DHT22;39042;53.150;5.898;2024-03-02T15:26:19;12.30;99.90
53146;DHT22;39042;53.150;5.898;2024-03-02T15:28:45;12.20;99.90
53146;DHT22;39042;53.150;5.898;2024-03-02T15:31:11;12.10;99.90
53146;DHT22;39042;53.150;5.898;2024-03-02T15:33:37;12.00;99.90
53146;DHT22;39042;53.150;5.898;2024-03-02T15:36:13;12.00;99.90
53146;DHT22;39042;53.150;5.898;2024-03-02T15:38:38;11.90;99.90
53146;DHT22;39042;53.150;5.898;2024-03-02T15:41:04;11.90;99.90
53146;DHT22;39042;53.150;5.898;2024-03-02T15:43:32;11.90;99.90
53146;DHT22;39042;53.150;5.898;2024-03-02T15:46:01;11.80;99.90
53146;DHT22;39042;53.150;5.898;2024-03-02T15:48:32;11.80;99.90
53146;DHT22;39042;53.150;5.898;2024-03-02T15:51:00;11.70;99.90